createdAt,value
2022-08-08T00:00:53.324Z,2.45
2022-08-08T00:03:32.034Z,2.80
2022-08-08T00:06:28.361Z,2.60
2022-08-08T00:09:33.011Z,2.20
2022-08-08T00:12:10.505Z,2.70
2022-08-08T00:14:59.652Z,2.65
2022-08-08T00:17:58.379Z,2.50
2022-08-08T00:20:49.722Z,2.70
2022-08-08T00:23:42.873Z,2.85
2022-08-08T00:26:30.117Z,2.97
2022-08-08T00:29:15.089Z,3.22
2022-08-08T00:32:20.479Z,3.28
2022-08-08T00:35:06.347Z,3.13
2022-08-08T00:38:02.656Z,3.50
2022-08-08T00:41:10.898Z,3.50
2022-08-08T00:43:59.156Z,3.60
2022-08-08T00:46:57.991Z,3.83
2022-08-08T00:50:14.736Z,3.35
2022-08-08T00:53:00.113Z,3.70
2022-08-08T00:55:53.227Z,3.75
2022-08-08T00:58:36.588Z,3.95
2022-08-08T01:01:38.276Z,3.75
2022-08-08T01:04:17.982Z,4.28
2022-08-08T01:07:05.940Z,3.70
2022-08-08T01:10:06.518Z,3.90
2022-08-08T01:12:56.891Z,3.97
2022-08-08T01:15:47.156Z,3.95
2022-08-08T01:18:52.997Z,4.10
2022-08-08T01:22:11.858Z,4.53
2022-08-08T01:25:14.244Z,4.40
2022-08-08T01:28:19.387Z,4.70
2022-08-08T01:32:02.666Z,4.53
2022-08-08T01:34:21.931Z,4.78
2022-08-08T01:37:56.399Z,4.70
2022-08-08T01:40:57.487Z,4.65
2022-08-08T01:43:48.370Z,5.03
2022-08-08T01:46:55.130Z,5.10
2022-08-08T01:49:53.504Z,4.90
2022-08-08T01:53:55.016Z,4.55
2022-08-08T01:56:27.108Z,4.47
2022-08-08T01:58:46.422Z,4.82
2022-08-08T02:02:00.329Z,4.53
2022-08-08T02:04:57.633Z,4.40
2022-08-08T02:07:41.767Z,4.40
2022-08-08T02:10:37.071Z,4.68
2022-08-08T02:16:34.086Z,4.53
2022-08-08T02:19:41.470Z,4.65
2022-08-08T02:22:52.537Z,4.70
2022-08-08T02:26:00.397Z,4.70
2022-08-08T02:29:05.570Z,4.22
2022-08-08T02:32:01.280Z,4.50
2022-08-08T02:35:13.111Z,4.90
2022-08-08T02:38:09.536Z,4.80
2022-08-08T02:41:59.076Z,4.90
2022-08-08T02:44:37.592Z,4.55
2022-08-08T02:47:54.891Z,4.80
2022-08-08T02:50:52.832Z,5.35
2022-08-08T02:53:33.791Z,4.68
2022-08-08T02:56:51.376Z,4.40
2022-08-08T02:59:57.986Z,4.83
2022-08-08T03:02:50.101Z,4.32
2022-08-08T03:05:55.572Z,4.55
2022-08-08T03:09:00.046Z,4.13
2022-08-08T03:12:02.461Z,4.68
2022-08-08T03:16:01.305Z,4.65
2022-08-08T03:18:00.142Z,4.88
2022-08-08T03:20:46.751Z,4.50
2022-08-08T03:23:17.641Z,4.50
2022-08-08T03:25:46.935Z,4.22
2022-08-08T03:28:29.295Z,4.40
2022-08-08T03:31:13.698Z,4.80
2022-08-08T03:33:56.354Z,4.35
2022-08-08T03:36:30.300Z,5.00
2022-08-08T03:39:14.327Z,4.72
2022-08-08T03:42:26.667Z,4.35
2022-08-08T03:44:35.379Z,4.85
2022-08-08T03:47:19.654Z,4.70
2022-08-08T03:50:01.125Z,4.45
2022-08-08T03:52:34.084Z,4.50
2022-08-08T03:55:19.762Z,4.45
2022-08-08T03:58:32.864Z,4.50
2022-08-08T04:01:01.586Z,4.82
2022-08-08T04:03:58.195Z,4.63
2022-08-08T04:06:30.964Z,4.63
2022-08-08T04:09:10.345Z,4.97
2022-08-08T04:11:57.952Z,4.72
2022-08-08T04:14:35.401Z,5.22
2022-08-08T04:17:06.979Z,4.85
2022-08-08T04:19:42.948Z,4.70
2022-08-08T04:22:10.146Z,4.72
2022-08-08T04:24:37.321Z,4.63
2022-08-08T04:27:10.625Z,5.30
2022-08-08T04:30:00.963Z,4.38
2022-08-08T04:32:47.810Z,14.15
2022-08-08T04:35:17.511Z,8.50
2022-08-08T04:37:44.864Z,6.50
2022-08-08T04:40:13.107Z,5.72
2022-08-08T04:42:56.285Z,5.05
2022-08-08T04:45:26.291Z,5.07
2022-08-08T04:47:54.320Z,4.22
2022-08-08T04:50:25.398Z,4.63
2022-08-08T04:53:04.573Z,5.10
2022-08-08T04:55:47.343Z,4.40
2022-08-08T04:58:23.891Z,4.43
2022-08-08T05:00:52.191Z,4.43
2022-08-08T05:04:09.189Z,4.57
2022-08-08T05:06:13.553Z,5.00
2022-08-08T05:08:44.524Z,4.20
2022-08-08T05:11:22.868Z,6.47
2022-08-08T05:14:01.063Z,5.18
2022-08-08T05:16:51.674Z,5.03
2022-08-08T05:20:10.475Z,7.00
2022-08-08T05:22:12.417Z,6.30
2022-08-08T05:24:40.164Z,6.38
2022-08-08T05:27:09.817Z,6.53
2022-08-08T05:29:40.811Z,6.88
2022-08-08T05:32:14.116Z,6.65
2022-08-08T05:34:53.467Z,6.05
2022-08-08T05:37:52.298Z,5.10
2022-08-08T05:40:21.526Z,5.40
2022-08-08T05:43:38.843Z,6.03
2022-08-08T05:46:03.051Z,5.83
2022-08-08T05:48:36.070Z,5.55
2022-08-08T05:51:13.419Z,4.97
2022-08-08T05:54:25.285Z,4.22
2022-08-08T05:56:42.714Z,4.47
2022-08-08T05:59:58.597Z,3.85
2022-08-08T06:02:43.402Z,3.70
2022-08-08T06:05:34.197Z,3.90
2022-08-08T06:08:10.129Z,4.00
2022-08-08T06:10:53.637Z,4.40
2022-08-08T06:13:23.424Z,4.50
2022-08-08T06:15:55.127Z,4.00
2022-08-08T06:18:28.081Z,4.03
2022-08-08T06:20:57.673Z,4.20
2022-08-08T06:23:53.352Z,3.65
2022-08-08T06:26:39.083Z,4.03
2022-08-08T06:29:10.692Z,3.53
2022-08-08T06:32:11.463Z,15.18
2022-08-08T06:34:56.455Z,20.75
2022-08-08T06:37:56.206Z,6.03
2022-08-08T06:40:32.194Z,5.13
2022-08-08T06:43:13.228Z,4.00
2022-08-08T06:45:43.148Z,3.90
2022-08-08T06:48:17.814Z,4.25
2022-08-08T06:50:52.119Z,3.90
2022-08-08T07:08:52.157Z,3.47
2022-08-08T07:11:23.698Z,3.55
2022-08-08T07:14:05.952Z,3.80
2022-08-08T07:17:09.145Z,3.75
2022-08-08T07:20:02.072Z,3.83
2022-08-08T07:22:50.241Z,3.70
2022-08-08T07:25:19.768Z,4.07
2022-08-08T07:28:02.690Z,4.80
2022-08-08T07:30:38.453Z,4.18
2022-08-08T07:33:10.208Z,4.25
2022-08-08T07:35:54.385Z,4.00
2022-08-08T07:38:28.432Z,4.97
2022-08-08T07:41:04.197Z,4.30
2022-08-08T07:43:38.027Z,4.85
2022-08-08T07:46:24.413Z,5.93
2022-08-08T07:48:54.542Z,5.70
2022-08-08T07:51:23.900Z,5.38
2022-08-08T07:54:47.107Z,5.13
2022-08-08T07:57:19.824Z,5.05
2022-08-08T08:00:16.201Z,4.78
2022-08-08T08:03:11.113Z,5.20
2022-08-08T08:05:50.764Z,4.90
2022-08-08T08:08:20.567Z,5.28
2022-08-08T08:10:55.788Z,4.70
2022-08-08T08:14:06.302Z,4.28
2022-08-08T08:16:29.036Z,3.88
2022-08-08T08:19:07.207Z,4.20
2022-08-08T08:21:57.473Z,4.57
2022-08-08T08:24:30.403Z,4.22
2022-08-08T08:26:58.353Z,4.25
2022-08-08T08:29:28.462Z,4.10
2022-08-08T08:31:58.204Z,3.92
2022-08-08T08:34:32.424Z,3.60
2022-08-08T08:37:08.329Z,3.88
2022-08-08T08:40:02.003Z,3.90
2022-08-08T08:42:29.159Z,3.78
2022-08-08T08:45:10.385Z,4.10
2022-08-08T08:47:53.314Z,3.88
2022-08-08T08:50:33.689Z,3.80
2022-08-08T08:53:27.310Z,3.75
2022-08-08T08:56:03.010Z,3.60
2022-08-08T08:58:46.994Z,3.53
2022-08-08T09:01:26.772Z,4.20
2022-08-08T09:04:00.887Z,3.83
2022-08-08T09:06:34.307Z,4.13
2022-08-08T09:09:26.092Z,4.40
2022-08-08T09:12:09.518Z,4.32
2022-08-08T09:14:42.746Z,4.28
2022-08-08T09:17:18.767Z,3.85
2022-08-08T09:22:00.861Z,4.20
2022-08-08T09:22:44.450Z,4.35
2022-08-08T09:25:13.053Z,4.13
2022-08-08T09:27:57.552Z,4.35
2022-08-08T09:30:31.258Z,4.45
2022-08-08T09:33:55.620Z,3.90
2022-08-08T09:35:52.460Z,4.22
2022-08-08T09:38:29.829Z,4.63
2022-08-08T09:41:07.162Z,4.03
2022-08-08T09:46:30.479Z,4.65
2022-08-08T09:49:18.172Z,4.45
2022-08-08T09:52:06.215Z,4.40
2022-08-08T09:54:45.635Z,4.50
2022-08-08T09:57:28.784Z,4.00
2022-08-08T10:00:34.252Z,4.45
2022-08-08T10:02:57.560Z,4.55
2022-08-08T10:05:26.412Z,4.78
2022-08-08T10:08:01.403Z,4.93
2022-08-08T10:10:37.087Z,4.82
2022-08-08T10:13:32.081Z,4.90
2022-08-08T10:16:18.586Z,4.60
2022-08-08T10:18:46.317Z,4.72
2022-08-08T10:21:25.181Z,5.25
2022-08-08T10:23:58.974Z,4.65
2022-08-08T10:26:56.914Z,4.72
2022-08-08T10:29:59.884Z,4.93
2022-08-08T10:32:48.761Z,4.45
2022-08-08T10:36:08.923Z,4.68
2022-08-08T10:38:17.319Z,4.85
2022-08-08T10:40:46.046Z,5.15
2022-08-08T10:43:14.251Z,4.47
2022-08-08T10:45:55.819Z,4.80
2022-08-08T10:48:37.183Z,4.75
2022-08-08T10:51:14.073Z,4.47
2022-08-08T10:53:58.087Z,4.90
2022-08-08T10:56:32.285Z,4.40
2022-08-08T10:59:05.020Z,4.50
2022-08-08T11:01:33.684Z,4.63
2022-08-08T11:04:04.685Z,4.55
2022-08-08T11:06:35.155Z,4.60
2022-08-08T11:09:19.650Z,4.22
2022-08-08T11:12:05.161Z,4.68
2022-08-08T11:14:52.899Z,4.43
2022-08-08T11:18:00.886Z,4.43
2022-08-08T11:20:18.291Z,4.88
2022-08-08T11:22:53.879Z,4.63
2022-08-08T11:25:53.358Z,4.32
2022-08-08T11:28:29.385Z,4.60
2022-08-08T11:31:04.187Z,4.85
2022-08-08T11:33:52.471Z,4.68
2022-08-08T11:36:27.864Z,4.57
2022-08-08T11:38:57.094Z,5.00
2022-08-08T11:41:32.464Z,4.43
2022-08-08T11:44:01.348Z,4.40
2022-08-08T11:46:30.447Z,4.43
2022-08-08T11:49:08.615Z,4.60
2022-08-08T11:51:50.697Z,4.40
2022-08-08T11:54:38.006Z,4.22
2022-08-08T11:57:17.425Z,4.90
2022-08-08T12:00:17.477Z,4.90
2022-08-08T12:02:51.662Z,4.53
2022-08-08T12:05:22.485Z,4.72
2022-08-08T12:07:57.032Z,4.82
2022-08-08T12:10:31.656Z,4.70
2022-08-08T12:13:09.930Z,4.75
2022-08-08T12:15:49.350Z,4.80
2022-08-08T12:18:25.345Z,4.93
2022-08-08T12:20:59.561Z,4.53
2022-08-08T12:23:43.588Z,4.70
2022-08-08T12:26:27.779Z,4.97
2022-08-08T12:29:07.765Z,4.82
2022-08-08T12:31:39.269Z,4.72
2022-08-08T12:34:39.367Z,4.65
2022-08-08T12:37:11.234Z,4.80
2022-08-08T12:39:59.964Z,4.95
2022-08-08T12:42:32.903Z,5.25
2022-08-08T12:45:20.035Z,4.97
2022-08-08T12:48:09.623Z,5.05
2022-08-08T12:50:52.466Z,4.88
2022-08-08T12:53:42.452Z,5.15
2022-08-08T12:56:19.654Z,5.00
2022-08-08T12:58:54.265Z,4.82
2022-08-08T13:01:37.703Z,4.47
2022-08-08T13:04:19.143Z,5.20
2022-08-08T13:07:12.046Z,4.63
2022-08-08T13:10:05.231Z,5.40
2022-08-08T13:12:39.647Z,5.72
2022-08-08T13:15:16.363Z,4.82
2022-08-08T13:18:08.940Z,5.75
2022-08-08T13:20:31.706Z,5.65
2022-08-08T13:23:30.925Z,5.13
2022-08-08T13:25:50.954Z,5.32
2022-08-08T13:28:42.057Z,5.97
2022-08-08T13:31:17.015Z,5.32
2022-08-08T13:33:49.858Z,5.22
2022-08-08T13:36:26.123Z,5.50
2022-08-08T13:39:09.896Z,5.65
2022-08-08T13:41:44.447Z,5.65
2022-08-08T13:44:26.381Z,5.25
2022-08-08T13:47:05.325Z,5.57
2022-08-08T13:50:36.057Z,4.97
2022-08-08T13:52:35.937Z,5.32
2022-08-08T13:55:06.850Z,5.38
2022-08-08T13:57:46.287Z,5.10
2022-08-08T14:00:24.151Z,5.63
2022-08-08T14:03:07.686Z,5.18
2022-08-08T14:06:01.009Z,4.97
2022-08-08T14:08:34.756Z,5.30
2022-08-08T14:11:02.392Z,5.80
2022-08-08T14:13:33.868Z,5.00
2022-08-08T14:16:16.753Z,4.95
2022-08-08T14:19:11.065Z,5.50
2022-08-08T14:21:48.850Z,4.95
2022-08-08T14:24:35.766Z,5.00
2022-08-08T14:27:07.829Z,4.35
2022-08-08T14:29:39.510Z,5.10
2022-08-08T14:32:15.322Z,4.53
2022-08-08T14:35:10.967Z,5.13
2022-08-08T14:37:59.660Z,5.28
2022-08-08T14:40:31.647Z,5.15
2022-08-08T14:43:31.105Z,5.22
2022-08-08T14:46:07.226Z,4.88
2022-08-08T14:48:57.373Z,5.00
2022-08-08T14:51:47.251Z,4.72
2022-08-08T14:54:28.352Z,4.30
2022-08-08T14:57:04.238Z,4.40
2022-08-08T14:59:44.496Z,4.57
2022-08-08T15:02:25.649Z,4.63
2022-08-08T15:05:11.442Z,4.20
2022-08-08T15:07:41.393Z,4.40
2022-08-08T15:10:14.855Z,4.10
2022-08-08T15:12:43.213Z,4.25
2022-08-08T15:15:18.683Z,5.10
2022-08-08T15:17:58.887Z,4.18
2022-08-08T15:20:29.047Z,4.28
2022-08-08T15:23:05.336Z,4.18
2022-08-08T15:25:50.338Z,4.57
2022-08-08T15:28:33.335Z,4.70
2022-08-08T15:31:04.447Z,4.10
2022-08-08T15:33:35.608Z,4.45
2022-08-08T15:36:08.927Z,4.25
2022-08-08T15:38:43.325Z,3.90
2022-08-08T15:41:24.499Z,3.90
2022-08-08T15:44:04.077Z,4.07
2022-08-08T15:46:45.526Z,4.72
2022-08-08T15:49:23.806Z,4.15
2022-08-08T15:51:55.987Z,4.65
2022-08-08T15:54:40.578Z,4.00
2022-08-08T15:57:11.056Z,4.32
2022-08-08T16:00:05.259Z,3.95
2022-08-08T16:02:33.180Z,4.82
2022-08-08T16:05:09.395Z,3.95
2022-08-08T16:07:53.075Z,5.05
2022-08-08T16:13:14.031Z,4.50
2022-08-08T16:13:29.977Z,4.78
2022-08-08T16:16:09.271Z,4.53
2022-08-08T16:18:57.380Z,4.43
2022-08-08T16:21:32.263Z,4.35
2022-08-08T16:24:11.127Z,4.57
2022-08-08T16:26:45.241Z,4.80
2022-08-08T16:29:36.952Z,4.40
2022-08-08T16:32:11.603Z,4.65
2022-08-08T16:34:48.076Z,4.68
2022-08-08T16:37:16.287Z,4.80
2022-08-08T16:40:01.935Z,4.78
2022-08-08T16:42:30.520Z,4.20
2022-08-08T16:44:59.725Z,4.53
2022-08-08T16:47:40.590Z,4.57
2022-08-08T16:50:26.206Z,4.70
2022-08-08T16:55:18.253Z,4.75
2022-08-08T16:55:56.065Z,4.68
2022-08-08T16:58:32.492Z,4.70
2022-08-08T17:01:02.977Z,4.93
2022-08-08T17:04:01.192Z,4.32
2022-08-08T17:06:37.449Z,4.78
2022-08-08T17:09:14.745Z,4.65
2022-08-08T17:11:48.461Z,4.63
2022-08-08T17:14:18.776Z,4.53
2022-08-08T17:16:57.337Z,4.65
2022-08-08T17:19:29.729Z,5.13
2022-08-08T17:22:01.458Z,4.80
2022-08-08T17:24:30.782Z,5.25
2022-08-08T17:26:59.416Z,5.00
2022-08-08T17:29:34.050Z,4.88
2022-08-08T17:32:04.519Z,4.97
2022-08-08T17:35:04.555Z,4.72
2022-08-08T17:37:25.037Z,4.97
2022-08-08T17:40:12.212Z,5.10
2022-08-08T17:42:39.826Z,4.88
2022-08-08T17:45:07.686Z,5.10
2022-08-08T17:47:52.317Z,4.82
2022-08-08T17:50:22.041Z,4.60
2022-08-08T17:52:49.932Z,4.75
2022-08-08T17:56:07.012Z,5.35
2022-08-08T17:58:05.586Z,4.82
2022-08-08T18:00:32.940Z,4.18
2022-08-08T18:03:09.238Z,4.10
2022-08-08T18:05:49.441Z,4.20
2022-08-08T18:08:37.864Z,4.45
2022-08-08T18:11:16.027Z,4.82
2022-08-08T18:13:47.913Z,5.50
2022-08-08T18:16:20.448Z,5.38
2022-08-08T18:18:56.563Z,5.30
2022-08-08T18:22:00.465Z,6.70
2022-08-08T18:24:21.089Z,5.55
2022-08-08T18:26:54.526Z,5.32
2022-08-08T18:29:35.543Z,5.20
2022-08-08T18:32:10.090Z,5.30
2022-08-08T18:34:40.281Z,5.17
2022-08-08T18:37:10.426Z,5.28
2022-08-08T18:39:59.549Z,5.10
2022-08-08T18:42:27.816Z,5.80
2022-08-08T18:44:57.226Z,5.22
2022-08-08T18:47:28.424Z,5.70
2022-08-08T18:50:02.986Z,5.20
2022-08-08T18:52:34.719Z,5.78
2022-08-08T18:55:10.744Z,5.50
2022-08-08T18:57:45.805Z,5.80
2022-08-08T19:00:19.774Z,5.80
2022-08-08T19:02:55.191Z,6.10
2022-08-08T19:05:34.022Z,5.93
2022-08-08T19:08:25.386Z,5.75
2022-08-08T19:10:56.277Z,5.88
2022-08-08T19:13:53.194Z,5.60
2022-08-08T19:16:19.520Z,6.20
2022-08-08T19:18:59.986Z,6.18
2022-08-08T19:21:32.881Z,6.10
2022-08-08T19:24:05.244Z,6.25
2022-08-08T19:26:38.427Z,6.25
2022-08-08T19:29:07.290Z,7.05
2022-08-08T19:31:37.273Z,6.53
2022-08-08T19:34:29.566Z,6.50
2022-08-08T19:36:58.643Z,6.28
2022-08-08T19:39:38.422Z,5.88
2022-08-08T19:42:06.661Z,6.47
2022-08-08T19:44:45.802Z,6.40
2022-08-08T19:47:16.020Z,5.90
2022-08-08T19:50:00.007Z,5.97
2022-08-08T19:52:35.546Z,6.18
2022-08-08T19:55:14.572Z,6.22
2022-08-08T19:57:45.389Z,5.82
2022-08-08T20:00:29.305Z,6.55
2022-08-08T20:03:14.648Z,6.07
2022-08-08T20:06:15.203Z,6.20
2022-08-08T20:08:37.258Z,6.13
2022-08-08T20:11:04.582Z,6.40
2022-08-08T20:14:32.759Z,6.00
2022-08-08T20:16:20.149Z,6.40
2022-08-08T20:18:53.783Z,6.60
2022-08-08T20:21:25.920Z,6.43
2022-08-08T20:23:58.040Z,6.35
2022-08-08T20:26:29.745Z,6.60
2022-08-08T20:28:57.858Z,6.22
2022-08-08T20:31:28.234Z,6.30
2022-08-08T20:34:29.764Z,6.30
2022-08-08T20:37:03.111Z,7.00
2022-08-08T20:39:39.054Z,6.30
2022-08-08T20:42:29.267Z,5.90
2022-08-08T20:44:57.979Z,5.72
2022-08-08T20:47:26.052Z,5.97
2022-08-08T20:49:57.583Z,5.82
2022-08-08T20:52:27.929Z,6.18
2022-08-08T20:54:56.316Z,5.80
2022-08-08T20:57:23.573Z,5.85
2022-08-08T20:59:54.486Z,5.53
2022-08-08T21:02:26.489Z,6.00
2022-08-08T21:05:01.764Z,6.07
2022-08-08T21:07:46.996Z,6.63
2022-08-08T21:10:16.365Z,5.70
2022-08-08T21:12:44.582Z,5.97
2022-08-08T21:15:16.589Z,6.05
2022-08-08T21:18:01.039Z,6.25
2022-08-08T21:20:34.584Z,6.32
2022-08-08T21:23:03.057Z,6.10
2022-08-08T21:25:32.921Z,6.40
2022-08-08T21:28:15.728Z,5.90
2022-08-08T21:30:52.055Z,5.95
2022-08-08T21:33:22.807Z,6.38
2022-08-08T21:36:15.142Z,6.03
2022-08-08T21:38:37.268Z,6.35
2022-08-08T21:41:04.537Z,6.07
2022-08-08T21:43:34.863Z,6.13
2022-08-08T21:48:04.549Z,6.53
2022-08-08T21:48:59.074Z,6.68
2022-08-08T21:54:30.784Z,6.00
2022-08-08T21:54:34.836Z,6.07
2022-08-08T21:57:07.312Z,5.95
2022-08-08T21:59:59.380Z,6.03
2022-08-08T22:02:25.731Z,5.75
2022-08-08T22:04:58.614Z,6.40
2022-08-08T22:07:40.268Z,6.18
2022-08-08T22:10:18.567Z,5.85
2022-08-08T22:13:18.280Z,6.60
2022-08-08T22:15:58.383Z,5.60
2022-08-08T22:18:30.179Z,6.13
2022-08-08T22:21:08.334Z,6.10
2022-08-08T22:23:50.403Z,5.80
2022-08-08T22:26:29.834Z,6.03
2022-08-08T22:29:15.113Z,5.75
2022-08-08T22:32:01.500Z,6.03
2022-08-08T22:34:31.274Z,5.82
2022-08-08T22:37:00.858Z,5.97
2022-08-08T22:39:39.276Z,5.60
2022-08-08T22:42:23.937Z,5.72
2022-08-08T22:44:54.178Z,5.93
2022-08-08T22:47:23.618Z,5.78
2022-08-08T22:50:01.885Z,5.85
2022-08-08T22:52:35.554Z,5.90
2022-08-08T22:55:06.524Z,5.50
2022-08-08T22:57:43.653Z,5.93
2022-08-08T23:00:13.616Z,5.63
2022-08-08T23:02:50.274Z,5.88
2022-08-08T23:05:21.312Z,5.55
2022-08-08T23:07:52.179Z,5.78
2022-08-08T23:10:26.810Z,5.68
2022-08-08T23:12:56.938Z,5.60
2022-08-08T23:16:40.667Z,5.30
2022-08-08T23:18:12.382Z,5.55
2022-08-08T23:20:43.429Z,5.30
2022-08-08T23:23:12.211Z,5.10
2022-08-08T23:25:45.390Z,5.15
2022-08-08T23:28:17.594Z,5.10
2022-08-08T23:30:46.299Z,5.40
2022-08-08T23:33:21.079Z,5.28
2022-08-08T23:36:08.568Z,5.45
2022-08-08T23:38:44.206Z,5.57
2022-08-08T23:41:22.993Z,5.47
2022-08-08T23:43:56.527Z,5.25
2022-08-08T23:49:03.337Z,5.70
2022-08-08T23:49:18.869Z,5.15
2022-08-08T23:52:04.647Z,4.90
2022-08-08T23:54:41.200Z,5.20
2022-08-08T23:57:25.318Z,5.35
